Time;durP1;ratioP1;P1;durP2;ratioP2;P2;SDS_P1;SDS_P2;PMS_P1;PMS_P2;Temp;Humidity;BMP_temperature;BMP_pressure;BME280_temperature;BME280_humidity;BME280_pressure;Samples;Min_cycle;Max_cycle;Signal;HPM_P1;HPM_P2
2023/08/04 00:00:16;;;;;;;1.15;0.55;;;;;;;;;;4969374;28;20030;-60
2023/08/04 00:02:42;;;;;;;1.00;0.50;;;;;;;;;;4965220;28;20042;-60
2023/08/04 00:05:08;;;;;;;1.58;0.50;;;;;;;;;;4970088;28;20073;-61
2023/08/04 00:07:36;;;;;;;1.33;0.60;;;;;;;;;;4968768;28;20042;-61
2023/08/04 00:10:03;;;;;;;4.13;0.60;;;;;;;;;;4974285;28;20046;-61
2023/08/04 00:12:31;;;;;;;3.13;0.70;;;;;;;;;;4966943;28;20070;-61
2023/08/04 00:14:57;;;;;;;2.03;0.88;;;;;;;;;;4970153;28;20030;-61
2023/08/04 00:17:25;;;;;;;2.45;0.75;;;;;;;;;;4969906;28;20053;-61
2023/08/04 00:19:51;;;;;;;2.33;0.70;;;;;;;;;;4971332;28;20030;-61
2023/08/04 00:22:17;;;;;;;2.03;0.75;;;;;;;;;;4970961;28;20042;-61
2023/08/04 00:24:43;;;;;;;0.98;0.50;;;;;;;;;;4967989;28;20529;-61
2023/08/04 00:27:09;;;;;;;0.80;0.50;;;;;;;;;;4973214;28;20035;-61
2023/08/04 00:29:35;;;;;;;1.42;0.70;;;;;;;;;;4971075;28;20050;-60
2023/08/04 00:32:03;;;;;;;4.50;0.65;;;;;;;;;;4968061;28;20331;-61
2023/08/04 00:34:29;;;;;;;1.48;0.80;;;;;;;;;;4965813;28;20038;-59
2023/08/04 00:36:55;;;;;;;1.42;0.60;;;;;;;;;;4969920;28;20030;-61
2023/08/04 00:39:21;;;;;;;3.00;0.80;;;;;;;;;;4968381;28;20053;-61
2023/08/04 00:41:47;;;;;;;4.35;0.70;;;;;;;;;;4968306;28;20050;-61
2023/08/04 00:44:13;;;;;;;1.90;0.65;;;;;;;;;;4967570;28;20061;-61
2023/08/04 00:46:40;;;;;;;1.50;0.50;;;;;;;;;;4968213;28;20406;-61
2023/08/04 00:49:07;;;;;;;3.75;0.70;;;;;;;;;;4968095;28;20030;-61
2023/08/04 00:51:34;;;;;;;2.03;0.70;;;;;;;;;;4967644;28;20046;-61
2023/08/04 00:54:02;;;;;;;1.15;0.70;;;;;;;;;;4966078;28;20043;-61
2023/08/04 00:56:30;;;;;;;3.35;0.68;;;;;;;;;;4967861;28;20023;-61
2023/08/04 00:58:58;;;;;;;2.40;1.23;;;;;;;;;;4968624;28;20034;-61
2023/08/04 01:01:24;;;;;;;0.70;0.60;;;;;;;;;;4967452;28;20406;-61
2023/08/04 01:03:51;;;;;;;1.15;0.73;;;;;;;;;;4967853;28;20050;-63
2023/08/04 01:06:45;;;;;;;2.10;0.63;;;;;;;;;;4971906;28;20055;-61
2023/08/04 01:09:35;;;;;;;1.58;0.60;;;;;;;;;;4970362;28;20422;-61
2023/08/04 01:12:23;;;;;;;1.80;0.70;;;;;;;;;;4969122;28;20034;-61
2023/08/04 01:14:53;;;;;;;3.58;0.80;;;;;;;;;;4984190;28;20491;-61
2023/08/04 01:17:29;;;;;;;1.52;0.60;;;;;;;;;;4973136;28;20043;-61
2023/08/04 01:19:56;;;;;;;2.20;0.65;;;;;;;;;;4969512;28;20410;-61
2023/08/04 01:22:23;;;;;;;0.90;0.70;;;;;;;;;;4970274;28;20046;-61
2023/08/04 01:24:51;;;;;;;2.78;0.80;;;;;;;;;;4969180;28;20046;-61
2023/08/04 01:27:39;;;;;;;3.35;0.75;;;;;;;;;;4969735;28;20074;-60
2023/08/04 01:30:10;;;;;;;1.70;0.65;;;;;;;;;;4971993;28;20065;-60
2023/08/04 01:32:36;;;;;;;1.58;0.68;;;;;;;;;;4969059;28;20062;-61
2023/08/04 01:35:04;;;;;;;2.67;0.90;;;;;;;;;;4969455;28;20418;-61
2023/08/04 01:37:30;;;;;;;2.95;0.70;;;;;;;;;;4970870;28;20051;-61
2023/08/04 01:39:56;;;;;;;1.17;0.73;;;;;;;;;;4973644;28;20037;-61
2023/08/04 01:42:22;;;;;;;1.90;0.70;;;;;;;;;;4970254;28;20039;-60
2023/08/04 01:44:48;;;;;;;0.73;0.50;;;;;;;;;;4953848;28;20039;-61
2023/08/04 01:47:14;;;;;;;1.80;0.70;;;;;;;;;;4967601;28;20049;-61
2023/08/04 01:49:40;;;;;;;2.72;0.70;;;;;;;;;;4965966;28;20054;-61
2023/08/04 01:52:06;;;;;;;1.00;0.70;;;;;;;;;;4966900;28;20027;-61
2023/08/04 01:54:33;;;;;;;1.80;0.80;;;;;;;;;;4946740;28;20528;-61
2023/08/04 01:56:59;;;;;;;5.03;0.77;;;;;;;;;;4969032;28;20475;-61
2023/08/04 01:59:25;;;;;;;2.45;0.73;;;;;;;;;;4965649;28;20031;-61
2023/08/04 02:01:51;;;;;;;0.70;0.60;;;;;;;;;;4966726;28;20054;-60
2023/08/04 02:04:17;;;;;;;4.53;0.90;;;;;;;;;;4966829;28;20035;-60
2023/08/04 02:06:43;;;;;;;2.63;0.75;;;;;;;;;;4951494;28;20046;-60
2023/08/04 02:09:11;;;;;;;1.65;0.80;;;;;;;;;;4968268;28;20042;-61
2023/08/04 02:11:37;;;;;;;3.53;0.80;;;;;;;;;;4967287;28;20034;-60
2023/08/04 02:14:03;;;;;;;1.63;0.80;;;;;;;;;;4968869;28;20038;-60
2023/08/04 02:16:29;;;;;;;2.65;0.77;;;;;;;;;;4964754;28;20035;-61
2023/08/04 02:19:07;;;;;;;1.70;0.73;;;;;;;;;;4968842;28;20034;-60
2023/08/04 02:21:33;;;;;;;4.00;1.00;;;;;;;;;;4965848;28;20061;-61
2023/08/04 02:24:01;;;;;;;2.95;0.80;;;;;;;;;;4964675;28;20051;-61
2023/08/04 02:26:28;;;;;;;2.80;1.02;;;;;;;;;;4965457;28;20055;-60
2023/08/04 02:28:54;;;;;;;1.17;0.65;;;;;;;;;;4968237;28;20069;-61
2023/08/04 02:31:23;;;;;;;1.45;0.85;;;;;;;;;;4965811;28;20058;-61
2023/08/04 02:33:49;;;;;;;1.88;1.00;;;;;;;;;;4962064;28;20043;-62
2023/08/04 02:36:16;;;;;;;2.13;0.80;;;;;;;;;;4969396;28;20049;-60
2023/08/04 02:38:42;;;;;;;2.33;1.15;;;;;;;;;;4967738;28;20073;-61
2023/08/04 02:41:09;;;;;;;2.58;0.90;;;;;;;;;;4972100;28;20042;-61
2023/08/04 02:43:36;;;;;;;1.00;0.73;;;;;;;;;;4963639;28;20491;-61
2023/08/04 02:46:03;;;;;;;5.60;1.10;;;;;;;;;;4967075;28;20035;-61
2023/08/04 02:48:30;;;;;;;2.08;0.85;;;;;;;;;;4964931;28;20047;-61
2023/08/04 02:51:08;;;;;;;3.03;0.93;;;;;;;;;;4967011;28;20038;-61
2023/08/04 02:53:35;;;;;;;2.17;0.70;;;;;;;;;;4964326;28;20046;-62
2023/08/04 02:56:28;;;;;;;1.95;0.80;;;;;;;;;;4967057;28;20054;-61
2023/08/04 02:58:54;;;;;;;3.08;1.75;;;;;;;;;;4963425;28;20047;-61
2023/08/04 03:01:20;;;;;;;2.17;1.30;;;;;;;;;;4966332;28;20458;-61
2023/08/04 03:03:46;;;;;;;2.15;1.58;;;;;;;;;;4965983;28;20065;-61
2023/08/04 03:06:12;;;;;;;1.30;0.90;;;;;;;;;;4965741;28;20055;-61
2023/08/04 03:08:38;;;;;;;4.68;0.95;;;;;;;;;;4965623;28;20799;-61
2023/08/04 03:11:10;;;;;;;2.67;0.88;;;;;;;;;;4966858;28;20387;-60
2023/08/04 03:13:37;;;;;;;2.47;0.82;;;;;;;;;;4965700;28;20517;-61
2023/08/04 03:16:04;;;;;;;2.10;1.00;;;;;;;;;;4969577;28;20039;-60
2023/08/04 03:18:30;;;;;;;1.20;0.80;;;;;;;;;;4968370;28;20034;-61
2023/08/04 03:21:00;;;;;;;1.23;1.00;;;;;;;;;;4952253;28;20053;-61
2023/08/04 03:23:26;;;;;;;2.65;1.13;;;;;;;;;;4968624;28;20104;-60
2023/08/04 03:25:52;;;;;;;2.53;0.90;;;;;;;;;;4966237;28;20047;-61
2023/08/04 03:28:18;;;;;;;4.82;1.05;;;;;;;;;;4967648;28;20039;-60
2023/08/04 03:30:44;;;;;;;2.40;0.85;;;;;;;;;;4950977;28;20046;-61
2023/08/04 03:33:10;;;;;;;4.50;1.00;;;;;;;;;;4965929;28;20034;-60
2023/08/04 03:35:36;;;;;;;2.40;1.00;;;;;;;;;;4966635;28;20525;-60
2023/08/04 03:38:03;;;;;;;1.95;1.00;;;;;;;;;;4970020;28;20034;-60
2023/08/04 03:40:30;;;;;;;4.43;1.10;;;;;;;;;;4966939;28;20030;-60
2023/08/04 03:42:56;;;;;;;3.70;1.50;;;;;;;;;;4967467;28;20038;-60
2023/08/04 03:45:22;;;;;;;9.40;3.10;;;;;;;;;;4970130;28;20054;-59
2023/08/04 03:47:48;;;;;;;4.05;1.30;;;;;;;;;;4967935;28;20496;-60
2023/08/04 03:50:14;;;;;;;2.78;1.08;;;;;;;;;;4971127;28;20038;-60
2023/08/04 03:52:40;;;;;;;3.03;1.10;;;;;;;;;;4969514;28;20039;-60
2023/08/04 03:55:06;;;;;;;4.85;1.15;;;;;;;;;;4970545;28;20486;-60
2023/08/04 03:57:32;;;;;;;3.28;1.02;;;;;;;;;;4967575;28;20042;-60
2023/08/04 03:59:59;;;;;;;2.60;1.17;;;;;;;;;;4971115;28;20077;-60
2023/08/04 04:02:25;;;;;;;2.25;1.02;;;;;;;;;;4970189;28;20058;-60
2023/08/04 04:04:51;;;;;;;6.13;1.55;;;;;;;;;;4971800;28;20058;-60
2023/08/04 04:07:17;;;;;;;9.40;2.95;;;;;;;;;;4972482;28;20034;-60
2023/08/04 04:09:43;;;;;;;6.25;1.20;;;;;;;;;;4969350;28;20671;-60
2023/08/04 04:12:09;;;;;;;5.47;1.27;;;;;;;;;;4973722;28;20035;-60
2023/08/04 04:14:35;;;;;;;4.75;1.40;;;;;;;;;;4968349;28;20688;-60
2023/08/04 04:17:04;;;;;;;5.43;0.90;;;;;;;;;;4971699;28;20126;-60
2023/08/04 04:19:30;;;;;;;4.97;1.20;;;;;;;;;;4967979;28;20058;-60
2023/08/04 04:21:56;;;;;;;5.65;1.15;;;;;;;;;;4970440;28;20057;-60
2023/08/04 04:24:22;;;;;;;7.53;1.55;;;;;;;;;;4969361;28;20494;-59
2023/08/04 04:26:48;;;;;;;3.40;1.40;;;;;;;;;;4971526;28;20043;-60
2023/08/04 04:29:14;;;;;;;3.58;1.52;;;;;;;;;;4973278;28;20034;-60
2023/08/04 04:31:40;;;;;;;3.30;1.20;;;;;;;;;;4970872;28;20046;-60
2023/08/04 04:34:06;;;;;;;2.30;1.25;;;;;;;;;;4971082;28;20046;-60
2023/08/04 04:36:32;;;;;;;4.05;1.30;;;;;;;;;;4969831;28;20038;-60
2023/08/04 04:39:00;;;;;;;3.20;1.48;;;;;;;;;;4974097;28;20045;-59
2023/08/04 04:41:27;;;;;;;6.38;1.85;;;;;;;;;;4968216;28;20042;-60
2023/08/04 04:43:53;;;;;;;3.08;1.30;;;;;;;;;;4969310;28;20387;-60
2023/08/04 04:46:19;;;;;;;1.75;1.23;;;;;;;;;;4968431;28;20034;-60
2023/08/04 04:48:45;;;;;;;4.32;1.55;;;;;;;;;;4969310;28;20054;-60
2023/08/04 04:51:11;;;;;;;3.60;1.60;;;;;;;;;;4968540;28;20051;-60
2023/08/04 04:53:37;;;;;;;6.50;1.48;;;;;;;;;;4966828;28;20039;-59
2023/08/04 04:56:05;;;;;;;3.35;1.20;;;;;;;;;;4968820;28;20038;-60
2023/08/04 04:58:31;;;;;;;2.17;1.13;;;;;;;;;;4968498;28;20050;-60
2023/08/04 05:01:02;;;;;;;2.40;1.27;;;;;;;;;;4968625;28;20050;-60
2023/08/04 05:03:28;;;;;;;2.10;1.40;;;;;;;;;;4966073;28;20541;-60
2023/08/04 05:05:54;;;;;;;2.97;1.25;;;;;;;;;;4970003;28;20071;-60
2023/08/04 05:08:20;;;;;;;3.65;1.25;;;;;;;;;;4967461;28;20034;-60
2023/08/04 05:10:50;;;;;;;4.75;1.30;;;;;;;;;;4968800;28;20042;-60
2023/08/04 05:13:16;;;;;;;3.63;1.60;;;;;;;;;;4967504;28;20039;-60
2023/08/04 05:15:42;;;;;;;2.42;1.10;;;;;;;;;;4968747;28;20026;-60
2023/08/04 05:18:08;;;;;;;4.03;1.60;;;;;;;;;;4972100;28;20050;-59
2023/08/04 05:20:34;;;;;;;3.15;1.25;;;;;;;;;;4967016;28;20047;-60
2023/08/04 05:23:00;;;;;;;4.88;1.33;;;;;;;;;;4966593;28;20042;-59
2023/08/04 05:25:27;;;;;;;5.93;1.40;;;;;;;;;;4966916;28;20046;-60
2023/08/04 05:27:53;;;;;;;3.45;1.48;;;;;;;;;;4971530;28;20050;-60
2023/08/04 05:30:19;;;;;;;7.50;1.30;;;;;;;;;;4970866;28;20055;-60
2023/08/04 05:32:45;;;;;;;2.90;1.52;;;;;;;;;;4967795;28;20424;-60
2023/08/04 05:35:11;;;;;;;5.35;1.88;;;;;;;;;;4967904;28;20043;-60
2023/08/04 05:37:37;;;;;;;2.83;1.60;;;;;;;;;;4967995;28;20042;-59
2023/08/04 05:40:05;;;;;;;3.35;1.33;;;;;;;;;;4969529;28;20399;-60
2023/08/04 05:42:31;;;;;;;4.88;1.50;;;;;;;;;;4966407;28;20050;-60
2023/08/04 05:44:58;;;;;;;2.60;1.50;;;;;;;;;;4968308;28;20034;-60
2023/08/04 05:47:26;;;;;;;3.22;1.52;;;;;;;;;;4966074;28;20055;-60
2023/08/04 05:49:52;;;;;;;3.83;1.55;;;;;;;;;;4967019;28;20051;-60
2023/08/04 05:52:18;;;;;;;8.65;2.00;;;;;;;;;;4967169;28;20037;-60
2023/08/04 05:54:44;;;;;;;5.30;1.83;;;;;;;;;;4966756;28;20047;-60
2023/08/04 05:57:10;;;;;;;4.30;1.73;;;;;;;;;;4967322;28;20050;-60
2023/08/04 05:59:36;;;;;;;4.28;1.55;;;;;;;;;;4966430;28;20521;-60
2023/08/04 06:02:02;;;;;;;5.55;2.10;;;;;;;;;;4966727;28;20434;-60
2023/08/04 06:04:29;;;;;;;4.72;2.00;;;;;;;;;;4964670;28;20053;-60
2023/08/04 06:06:55;;;;;;;4.05;1.70;;;;;;;;;;4967190;28;20499;-60
2023/08/04 06:09:21;;;;;;;4.82;2.03;;;;;;;;;;4969221;28;20061;-60
2023/08/04 06:11:47;;;;;;;4.10;1.60;;;;;;;;;;4968056;28;20078;-60
2023/08/04 06:14:13;;;;;;;4.95;1.83;;;;;;;;;;4967838;28;20403;-60
2023/08/04 06:16:39;;;;;;;4.53;1.90;;;;;;;;;;4966887;28;20545;-60
2023/08/04 06:19:05;;;;;;;4.45;1.83;;;;;;;;;;4968906;28;20034;-60
2023/08/04 06:21:35;;;;;;;5.68;1.83;;;;;;;;;;4966542;28;20046;-59
2023/08/04 06:24:03;;;;;;;6.65;1.90;;;;;;;;;;4961807;28;20035;-59
2023/08/04 06:26:29;;;;;;;5.22;1.90;;;;;;;;;;4968450;28;20027;-59
2023/08/04 06:28:55;;;;;;;4.05;2.20;;;;;;;;;;4964772;28;20042;-59
2023/08/04 06:31:21;;;;;;;8.95;1.85;;;;;;;;;;4966868;28;20041;-59
2023/08/04 06:33:47;;;;;;;3.85;1.67;;;;;;;;;;4967681;28;20447;-59
2023/08/04 06:36:13;;;;;;;3.47;1.83;;;;;;;;;;4968230;28;20061;-60
2023/08/04 06:38:39;;;;;;;4.90;1.70;;;;;;;;;;4968153;28;20505;-60
2023/08/04 06:41:05;;;;;;;3.80;1.48;;;;;;;;;;4967388;28;20030;-60
2023/08/04 06:43:31;;;;;;;3.72;1.63;;;;;;;;;;4965743;28;20499;-61
2023/08/04 06:45:57;;;;;;;10.13;1.95;;;;;;;;;;4966547;28;20042;-61
2023/08/04 06:48:24;;;;;;;4.20;1.50;;;;;;;;;;4965347;28;20038;-60
2023/08/04 06:50:51;;;;;;;4.00;2.00;;;;;;;;;;4965803;28;20042;-61
2023/08/04 06:53:17;;;;;;;3.30;1.55;;;;;;;;;;4964893;28;20035;-60
2023/08/04 06:55:43;;;;;;;4.07;1.77;;;;;;;;;;4964220;28;20051;-60
2023/08/04 06:58:09;;;;;;;4.05;1.60;;;;;;;;;;4966621;28;20034;-61
2023/08/04 07:00:35;;;;;;;2.85;1.80;;;;;;;;;;4966552;28;20514;-60
2023/08/04 07:03:01;;;;;;;4.25;1.60;;;;;;;;;;4964914;28;20383;-60
2023/08/04 07:05:28;;;;;;;4.53;1.65;;;;;;;;;;4966318;28;20039;-61
2023/08/04 07:07:54;;;;;;;3.35;1.70;;;;;;;;;;4967064;28;20035;-60
2023/08/04 07:10:21;;;;;;;3.80;1.50;;;;;;;;;;4970224;28;20034;-60
2023/08/04 07:12:47;;;;;;;4.50;1.80;;;;;;;;;;4967595;28;20030;-61
2023/08/04 07:15:13;;;;;;;6.78;1.95;;;;;;;;;;4969977;28;20097;-60
2023/08/04 07:17:39;;;;;;;2.50;1.40;;;;;;;;;;4968175;28;20051;-60
2023/08/04 07:20:05;;;;;;;4.18;1.50;;;;;;;;;;4971966;28;20265;-60
2023/08/04 07:22:32;;;;;;;3.08;1.60;;;;;;;;;;4966061;28;20047;-61
2023/08/04 07:24:58;;;;;;;2.83;1.55;;;;;;;;;;4970555;28;20107;-60
2023/08/04 07:27:24;;;;;;;5.40;1.50;;;;;;;;;;4969730;28;20034;-61
2023/08/04 07:29:50;;;;;;;5.47;1.63;;;;;;;;;;4972973;28;20034;-60
2023/08/04 07:32:18;;;;;;;3.65;1.60;;;;;;;;;;4968543;28;20548;-60
2023/08/04 07:34:44;;;;;;;5.97;1.70;;;;;;;;;;4968089;28;20051;-60
2023/08/04 07:37:10;;;;;;;6.68;1.77;;;;;;;;;;4972443;28;20426;-60
2023/08/04 07:39:36;;;;;;;3.25;1.75;;;;;;;;;;4969411;28;20064;-61
2023/08/04 07:42:03;;;;;;;3.53;1.50;;;;;;;;;;4970403;28;20402;-60
2023/08/04 07:44:30;;;;;;;2.80;1.75;;;;;;;;;;4967131;28;20051;-60
2023/08/04 07:46:56;;;;;;;4.47;1.55;;;;;;;;;;4968529;28;20039;-60
2023/08/04 07:49:22;;;;;;;5.97;1.40;;;;;;;;;;4968015;28;20045;-60
2023/08/04 07:51:48;;;;;;;2.45;1.25;;;;;;;;;;4968548;28;20046;-61
2023/08/04 07:54:14;;;;;;;3.50;1.88;;;;;;;;;;4968992;28;20039;-62
2023/08/04 07:56:40;;;;;;;3.78;1.50;;;;;;;;;;4968782;28;20035;-60
2023/08/04 07:59:06;;;;;;;2.33;1.55;;;;;;;;;;4970941;28;20045;-60
2023/08/04 08:01:32;;;;;;;3.88;1.63;;;;;;;;;;4968362;28;20499;-59
2023/08/04 08:03:58;;;;;;;5.28;1.30;;;;;;;;;;4968486;28;20427;-60
2023/08/04 08:06:24;;;;;;;4.13;1.70;;;;;;;;;;4970276;28;20498;-60
2023/08/04 08:08:51;;;;;;;4.22;1.77;;;;;;;;;;4967395;28;20430;-60
2023/08/04 08:11:17;;;;;;;2.55;1.67;;;;;;;;;;4970622;28;20050;-60
2023/08/04 08:13:43;;;;;;;4.15;1.80;;;;;;;;;;4970030;28;20058;-60
2023/08/04 08:16:14;;;;;;;6.47;1.92;;;;;;;;;;4969570;28;20049;-60
2023/08/04 08:18:41;;;;;;;6.25;1.63;;;;;;;;;;4970329;28;20406;-61
2023/08/04 08:21:09;;;;;;;6.43;1.60;;;;;;;;;;4970479;28;20522;-60
2023/08/04 08:23:36;;;;;;;5.20;1.60;;;;;;;;;;4969235;28;20043;-60
2023/08/04 08:26:03;;;;;;;3.72;1.73;;;;;;;;;;4971827;28;20498;-60
2023/08/04 08:28:29;;;;;;;2.22;1.30;;;;;;;;;;4969257;28;20494;-60
2023/08/04 08:30:56;;;;;;;7.15;1.73;;;;;;;;;;4973828;28;20396;-60
2023/08/04 08:33:22;;;;;;;7.18;2.70;;;;;;;;;;4967591;28;20042;-60
2023/08/04 08:35:48;;;;;;;7.45;1.90;;;;;;;;;;4968176;28;20046;-60
2023/08/04 08:38:14;;;;;;;3.10;1.27;;;;;;;;;;4969917;28;20027;-60
2023/08/04 08:40:41;;;;;;;9.10;1.88;;;;;;;;;;4969178;28;20030;-60
2023/08/04 08:43:07;;;;;;;5.80;1.48;;;;;;;;;;4966362;28;20058;-60
2023/08/04 08:45:34;;;;;;;5.78;1.40;;;;;;;;;;4968899;28;20406;-60
2023/08/04 08:48:00;;;;;;;4.70;1.50;;;;;;;;;;4967282;28;20061;-61
2023/08/04 08:50:27;;;;;;;3.22;1.50;;;;;;;;;;4967502;28;20446;-61
2023/08/04 08:53:08;;;;;;;4.15;1.73;;;;;;;;;;4966980;28;20054;-60
2023/08/04 08:55:35;;;;;;;5.22;1.70;;;;;;;;;;4967404;28;20042;-60
2023/08/04 08:58:02;;;;;;;4.13;1.50;;;;;;;;;;4969148;28;20039;-60
2023/08/04 09:00:28;;;;;;;2.35;1.50;;;;;;;;;;4966216;28;20035;-60
2023/08/04 09:02:55;;;;;;;2.80;1.65;;;;;;;;;;4968047;28;20051;-60
2023/08/04 09:05:21;;;;;;;2.97;1.20;;;;;;;;;;4969546;28;20039;-60
2023/08/04 09:07:48;;;;;;;2.97;1.50;;;;;;;;;;4970026;28;20050;-60
2023/08/04 09:10:14;;;;;;;7.72;2.28;;;;;;;;;;4973435;28;20046;-60
2023/08/04 09:12:44;;;;;;;2.30;1.45;;;;;;;;;;4967844;28;20055;-60
2023/08/04 09:15:10;;;;;;;4.05;1.13;;;;;;;;;;4970272;28;20042;-60
2023/08/04 09:17:39;;;;;;;2.97;1.10;;;;;;;;;;4969322;28;20049;-60
2023/08/04 09:20:10;;;;;;;1.98;1.10;;;;;;;;;;4972224;28;20054;-60
2023/08/04 09:22:42;;;;;;;2.47;1.10;;;;;;;;;;4968545;28;20062;-60
2023/08/04 09:25:09;;;;;;;3.85;1.25;;;;;;;;;;4969468;28;20054;-60
2023/08/04 09:27:41;;;;;;;5.40;1.30;;;;;;;;;;4968170;28;20043;-60
2023/08/04 09:30:09;;;;;;;3.75;1.10;;;;;;;;;;4968943;28;20026;-60
2023/08/04 09:32:47;;;;;;;4.83;1.30;;;;;;;;;;4966656;28;20079;-60
2023/08/04 09:35:14;;;;;;;3.05;1.30;;;;;;;;;;4969029;28;20046;-60
2023/08/04 09:37:40;;;;;;;2.58;1.30;;;;;;;;;;4967601;28;20062;-61
2023/08/04 09:40:18;;;;;;;2.80;1.50;;;;;;;;;;4968937;28;20031;-60
2023/08/04 09:42:45;;;;;;;3.17;1.20;;;;;;;;;;4967136;28;20046;-61
2023/08/04 09:45:15;;;;;;;3.15;1.17;;;;;;;;;;4968224;28;20499;-60
2023/08/04 09:47:47;;;;;;;3.80;1.20;;;;;;;;;;4965543;28;20494;-61
2023/08/04 09:50:13;;;;;;;2.63;1.13;;;;;;;;;;4968375;28;20031;-61
2023/08/04 09:52:39;;;;;;;3.50;1.20;;;;;;;;;;4964967;28;20049;-60
2023/08/04 09:55:10;;;;;;;2.10;1.23;;;;;;;;;;4969137;28;20065;-61
2023/08/04 09:57:37;;;;;;;3.15;1.40;;;;;;;;;;4965699;28;20446;-60
2023/08/04 10:00:08;;;;;;;3.47;1.50;;;;;;;;;;4967913;28;20038;-61
2023/08/04 10:02:36;;;;;;;3.33;1.10;;;;;;;;;;4963626;28;20039;-60
2023/08/04 10:05:03;;;;;;;2.60;1.15;;;;;;;;;;4970057;28;20027;-61
2023/08/04 10:07:31;;;;;;;2.10;1.05;;;;;;;;;;4968326;28;20034;-61
2023/08/04 10:10:00;;;;;;;3.10;1.30;;;;;;;;;;4970095;28;20039;-60
2023/08/04 10:12:28;;;;;;;1.77;1.00;;;;;;;;;;4970572;28;20041;-60
2023/08/04 10:14:55;;;;;;;1.70;1.00;;;;;;;;;;4968994;28;20548;-60
2023/08/04 10:17:21;;;;;;;2.35;1.20;;;;;;;;;;4967626;28;20037;-60
2023/08/04 10:19:47;;;;;;;2.53;1.33;;;;;;;;;;4970120;28;20062;-60
2023/08/04 10:22:13;;;;;;;3.13;1.20;;;;;;;;;;4969920;28;20395;-60
2023/08/04 10:24:42;;;;;;;2.95;1.13;;;;;;;;;;4965498;28;20505;-60
2023/08/04 10:27:20;;;;;;;2.35;1.20;;;;;;;;;;4966920;28;20401;-60
2023/08/04 10:30:08;;;;;;;5.85;1.17;;;;;;;;;;4967553;28;20510;-60
2023/08/04 10:32:36;;;;;;;2.50;1.20;;;;;;;;;;4964119;28;20042;-60
2023/08/04 10:35:05;;;;;;;1.55;0.90;;;;;;;;;;4966709;28;20042;-60
2023/08/04 10:37:42;;;;;;;;;;;;;;;;;;4967084;28;20391;-61
2023/08/04 10:40:10;;;;;;;2.05;1.00;;;;;;;;;;4963965;28;19921;-60
2023/08/04 10:43:04;;;;;;;2.60;1.20;;;;;;;;;;4965407;28;20045;-62
2023/08/04 10:45:54;;;;;;;1.65;1.13;;;;;;;;;;4964922;28;20053;-61
2023/08/04 10:48:21;;;;;;;4.25;1.00;;;;;;;;;;4962684;28;20042;-61
2023/08/04 10:50:50;;;;;;;3.20;0.98;;;;;;;;;;4966793;28;20046;-61
2023/08/04 10:53:17;;;;;;;2.13;1.10;;;;;;;;;;4965849;28;20046;-61
2023/08/04 10:56:05;;;;;;;3.50;1.00;;;;;;;;;;4964956;28;20403;-61
2023/08/04 10:58:31;;;;;;;2.33;1.00;;;;;;;;;;4966015;28;20514;-62
2023/08/04 11:00:57;;;;;;;5.28;1.23;;;;;;;;;;4966997;28;20301;-61
2023/08/04 11:03:28;;;;;;;4.90;1.42;;;;;;;;;;4965605;28;20047;-61
2023/08/04 11:05:55;;;;;;;2.42;1.10;;;;;;;;;;4968739;28;20051;-61
2023/08/04 11:08:23;;;;;;;2.70;1.00;;;;;;;;;;4968462;28;20034;-61
2023/08/04 11:10:54;;;;;;;2.92;1.10;;;;;;;;;;4969389;28;20058;-61
2023/08/04 11:13:22;;;;;;;1.90;1.00;;;;;;;;;;4967239;28;20666;-62
2023/08/04 11:15:49;;;;;;;3.83;1.40;;;;;;;;;;4967962;28;20078;-60
2023/08/04 11:18:29;;;;;;;4.15;1.00;;;;;;;;;;4966482;28;20058;-61
2023/08/04 11:21:00;;;;;;;1.80;1.05;;;;;;;;;;4968283;28;20038;-60
2023/08/04 11:23:30;;;;;;;1.75;1.15;;;;;;;;;;4965653;28;20035;-60
2023/08/04 11:25:58;;;;;;;1.50;1.00;;;;;;;;;;4971015;28;20053;-61
2023/08/04 11:28:25;;;;;;;1.92;0.98;;;;;;;;;;4967254;28;20053;-61
2023/08/04 11:31:03;;;;;;;2.17;0.95;;;;;;;;;;4968044;28;20058;-60
2023/08/04 11:33:29;;;;;;;2.22;1.00;;;;;;;;;;4964523;28;20039;-62
2023/08/04 11:35:55;;;;;;;1.20;0.80;;;;;;;;;;4966460;28;20051;-61
2023/08/04 11:38:21;;;;;;;1.67;0.80;;;;;;;;;;4966262;28;20430;-60
2023/08/04 11:41:15;;;;;;;3.10;1.20;;;;;;;;;;4966557;28;20050;-61
2023/08/04 11:43:42;;;;;;;1.80;1.00;;;;;;;;;;4962251;28;20043;-61
2023/08/04 11:46:08;;;;;;;1.90;1.00;;;;;;;;;;4967336;28;20046;-61
2023/08/04 11:48:38;;;;;;;1.73;0.75;;;;;;;;;;4965083;28;20510;-61
2023/08/04 11:51:08;;;;;;;4.25;0.80;;;;;;;;;;4967079;28;20038;-62
2023/08/04 11:53:37;;;;;;;1.83;0.77;;;;;;;;;;4964410;28;20076;-61
2023/08/04 11:56:04;;;;;;;2.25;0.70;;;;;;;;;;4966467;28;20050;-61
2023/08/04 11:58:32;;;;;;;2.25;0.75;;;;;;;;;;4965309;28;20514;-61
2023/08/04 12:00:58;;;;;;;2.07;0.80;;;;;;;;;;4969225;28;20511;-61
2023/08/04 12:03:25;;;;;;;1.77;0.70;;;;;;;;;;4967626;28;20298;-61
2023/08/04 12:05:51;;;;;;;1.75;1.10;;;;;;;;;;4971971;28;20042;-61
2023/08/04 12:08:17;;;;;;;1.10;0.85;;;;;;;;;;4972575;28;20506;-60
2023/08/04 12:10:43;;;;;;;3.58;1.10;;;;;;;;;;4967743;28;20058;-61
2023/08/04 12:13:35;;;;;;;2.30;0.90;;;;;;;;;;4973201;28;20051;-61
2023/08/04 12:16:02;;;;;;;3.25;1.25;;;;;;;;;;4965813;28;20057;-61
2023/08/04 12:18:28;;;;;;;2.20;1.00;;;;;;;;;;4969753;28;20111;-60
2023/08/04 12:20:56;;;;;;;2.75;1.25;;;;;;;;;;4973428;28;20054;-60
2023/08/04 12:23:22;;;;;;;3.20;1.20;;;;;;;;;;4967441;28;20039;-60
2023/08/04 12:25:48;;;;;;;3.60;1.55;;;;;;;;;;4970561;28;20039;-61
2023/08/04 12:28:15;;;;;;;4.13;1.35;;;;;;;;;;4971563;28;20054;-60
2023/08/04 12:30:41;;;;;;;6.93;3.30;;;;;;;;;;4966431;28;20055;-60
2023/08/04 12:33:08;;;;;;;5.55;2.10;;;;;;;;;;4968168;28;20066;-61
2023/08/04 12:35:34;;;;;;;4.65;1.63;;;;;;;;;;4966900;28;20055;-61
2023/08/04 12:38:06;;;;;;;4.10;1.30;;;;;;;;;;4968433;28;20038;-61
2023/08/04 12:40:32;;;;;;;2.83;1.05;;;;;;;;;;4966798;28;20061;-61
2023/08/04 12:43:00;;;;;;;3.25;1.10;;;;;;;;;;4967686;28;20042;-61
2023/08/04 12:45:26;;;;;;;1.77;1.00;;;;;;;;;;4967685;28;20035;-61
2023/08/04 12:47:53;;;;;;;3.67;1.30;;;;;;;;;;4968733;28;20414;-61
2023/08/04 12:50:19;;;;;;;6.40;1.63;;;;;;;;;;4968808;28;20042;-62
2023/08/04 12:52:45;;;;;;;2.83;1.50;;;;;;;;;;4968803;28;20057;-61
2023/08/04 12:55:11;;;;;;;2.97;1.40;;;;;;;;;;4970520;28;20053;-61
2023/08/04 12:57:37;;;;;;;2.60;1.40;;;;;;;;;;4967277;28;20047;-62
2023/08/04 13:00:05;;;;;;;1.88;1.02;;;;;;;;;;4969432;28;20049;-61
2023/08/04 13:02:31;;;;;;;3.55;1.20;;;;;;;;;;4969127;28;20037;-61
2023/08/04 13:04:57;;;;;;;3.67;1.50;;;;;;;;;;4969825;28;20034;-61
2023/08/04 13:07:23;;;;;;;2.75;1.30;;;;;;;;;;4968578;28;20039;-62
2023/08/04 13:09:49;;;;;;;1.38;0.88;;;;;;;;;;4966287;28;20042;-62
2023/08/04 13:12:15;;;;;;;1.92;0.93;;;;;;;;;;4966717;28;20664;-60
2023/08/04 13:14:41;;;;;;;1.92;0.80;;;;;;;;;;4966574;28;20089;-61
2023/08/04 13:17:17;;;;;;;3.65;0.80;;;;;;;;;;4970420;28;20046;-62
2023/08/04 13:19:46;;;;;;;2.80;0.80;;;;;;;;;;4970239;28;20665;-61
2023/08/04 13:22:12;;;;;;;1.27;0.70;;;;;;;;;;4968674;28;20050;-62
2023/08/04 13:24:38;;;;;;;2.75;0.82;;;;;;;;;;4968400;28;20301;-62
2023/08/04 13:27:07;;;;;;;1.05;0.88;;;;;;;;;;4970382;28;20050;-61
2023/08/04 13:29:33;;;;;;;1.17;0.80;;;;;;;;;;4970476;28;20093;-62
2023/08/04 13:31:59;;;;;;;3.35;1.10;;;;;;;;;;4968722;28;20423;-61
2023/08/04 13:34:25;;;;;;;3.15;1.05;;;;;;;;;;4966700;28;20038;-62
2023/08/04 13:36:51;;;;;;;2.05;0.85;;;;;;;;;;4967587;28;20058;-61
2023/08/04 13:39:17;;;;;;;2.08;1.13;;;;;;;;;;4967302;28;20050;-61
2023/08/04 13:41:44;;;;;;;1.60;0.90;;;;;;;;;;4964207;28;20042;-62
2023/08/04 13:44:10;;;;;;;3.85;1.10;;;;;;;;;;4965627;28;20046;-61
2023/08/04 13:46:36;;;;;;;2.97;1.15;;;;;;;;;;4966764;28;20406;-61
2023/08/04 13:49:02;;;;;;;3.17;1.30;;;;;;;;;;4963222;28;20418;-61
2023/08/04 13:51:29;;;;;;;3.38;1.50;;;;;;;;;;4968021;28;20046;-61
2023/08/04 13:53:55;;;;;;;2.53;1.55;;;;;;;;;;4965332;28;20407;-61
2023/08/04 13:56:21;;;;;;;4.28;1.70;;;;;;;;;;4969044;28;20046;-61
2023/08/04 13:58:51;;;;;;;5.18;1.52;;;;;;;;;;4967215;28;20039;-61
2023/08/04 14:01:17;;;;;;;3.47;1.40;;;;;;;;;;4971803;28;20046;-61
2023/08/04 14:03:43;;;;;;;4.65;1.77;;;;;;;;;;4968317;28;20050;-61
2023/08/04 14:06:09;;;;;;;1.83;1.40;;;;;;;;;;4970394;28;20042;-61
2023/08/04 14:08:35;;;;;;;2.75;1.83;;;;;;;;;;4964070;28;20051;-61
2023/08/04 14:11:02;;;;;;;3.65;1.80;;;;;;;;;;4969696;28;20050;-60
2023/08/04 14:13:28;;;;;;;3.40;1.55;;;;;;;;;;4963660;28;20046;-60
2023/08/04 14:15:54;;;;;;;4.75;3.38;;;;;;;;;;4967963;28;20435;-61
2023/08/04 14:18:20;;;;;;;9.48;4.90;;;;;;;;;;4968139;28;20426;-61
2023/08/04 14:20:46;;;;;;;5.82;2.00;;;;;;;;;;4970017;28;20038;-61
2023/08/04 14:23:12;;;;;;;4.57;1.70;;;;;;;;;;4969051;28;20030;-61
2023/08/04 14:25:38;;;;;;;6.40;1.80;;;;;;;;;;4967264;28;20078;-60
2023/08/04 14:28:04;;;;;;;5.60;2.25;;;;;;;;;;4968695;28;20043;-61
2023/08/04 14:30:31;;;;;;;4.60;1.80;;;;;;;;;;4963573;28;20042;-61
2023/08/04 14:32:57;;;;;;;4.20;2.13;;;;;;;;;;4968468;28;20042;-61
2023/08/04 14:35:23;;;;;;;2.95;1.70;;;;;;;;;;4967371;28;20073;-60
2023/08/04 14:37:49;;;;;;;3.83;1.60;;;;;;;;;;4966747;28;20042;-60
2023/08/04 14:40:16;;;;;;;3.47;1.50;;;;;;;;;;4967767;28;20046;-60
2023/08/04 14:42:43;;;;;;;1.85;0.93;;;;;;;;;;4965021;28;20049;-60
2023/08/04 14:45:09;;;;;;;1.45;1.02;;;;;;;;;;4967434;28;20554;-60